Time;durP1;ratioP1;P1;durP2;ratioP2;P2;SDS_P1;SDS_P2;PMS_P1;PMS_P2;Temp;Humidity;BMP_temperature;BMP_pressure;BME280_temperature;BME280_humidity;BME280_pressure;Samples;Min_cycle;Max_cycle;Signal;HPM_P1;HPM_P2
2022/11/30 00:00:17;;;;;;;46.83;19.65;;;4.40;99.90;;;;;;5113832;28;20118;-65
2022/11/30 00:02:43;;;;;;;83.10;33.33;;;4.30;99.90;;;;;;5114721;28;20085;-65
2022/11/30 00:05:10;;;;;;;36.30;18.08;;;4.30;99.90;;;;;;5114263;28;20031;-65
2022/11/30 00:07:36;;;;;;;41.92;18.92;;;4.30;99.90;;;;;;5113911;28;20039;-65
2022/11/30 00:10:03;;;;;;;66.63;31.83;;;4.20;99.90;;;;;;5114838;28;20126;-65
2022/11/30 00:12:29;;;;;;;36.85;17.85;;;4.20;99.90;;;;;;5114474;28;20071;-65
2022/11/30 00:14:55;;;;;;;51.88;27.58;;;4.30;99.90;;;;;;5113753;28;20071;-65
2022/11/30 00:17:20;;;;;;;55.50;33.92;;;4.30;99.90;;;;;;5115437;28;20073;-66
2022/11/30 00:19:46;;;;;;;31.85;17.13;;;4.30;99.90;;;;;;5115895;28;20044;-66
2022/11/30 00:22:12;;;;;;;29.23;14.65;;;4.40;99.90;;;;;;5114671;28;20035;-66
2022/11/30 00:24:37;;;;;;;91.88;42.97;;;4.40;99.90;;;;;;5115959;28;20039;-66
2022/11/30 00:27:03;;;;;;;55.35;35.53;;;4.40;99.90;;;;;;5115251;28;20087;-66
2022/11/30 00:29:29;;;;;;;47.72;32.17;;;4.50;99.90;;;;;;5113492;28;20044;-66
2022/11/30 00:31:54;;;;;;;66.30;41.80;;;4.50;99.90;;;;;;5115818;28;20040;-66
2022/11/30 00:34:20;;;;;;;40.15;24.70;;;4.60;99.90;;;;;;5113590;28;20035;-66
2022/11/30 00:36:45;;;;;;;26.23;17.95;;;4.60;99.90;;;;;;5113291;28;20039;-66
2022/11/30 00:39:11;;;;;;;32.20;19.20;;;4.70;99.90;;;;;;5113611;28;20122;-66
2022/11/30 00:41:37;;;;;;;28.45;18.40;;;4.80;99.90;;;;;;5113872;28;20124;-66
2022/11/30 00:44:03;;;;;;;27.13;18.83;;;4.80;99.90;;;;;;5114777;28;20047;-66
2022/11/30 00:46:28;;;;;;;25.52;16.00;;;4.90;99.90;;;;;;5113526;28;20434;-66
2022/11/30 00:48:54;;;;;;;25.55;17.40;;;5.00;99.90;;;;;;5113393;28;20126;-66
2022/11/30 00:51:20;;;;;;;18.85;14.32;;;5.00;99.90;;;;;;5113465;28;20039;-66
2022/11/30 00:53:48;;;;;;;20.83;14.88;;;5.00;99.90;;;;;;5113897;28;20039;-66
2022/11/30 00:56:15;;;;;;;20.88;13.60;;;5.10;99.90;;;;;;5112367;28;20052;-66
2022/11/30 00:58:40;;;;;;;25.90;16.48;;;5.10;99.90;;;;;;5113625;28;20039;-66
2022/11/30 01:01:07;;;;;;;26.17;16.20;;;5.10;99.90;;;;;;5113142;28;20049;-66
2022/11/30 01:03:33;;;;;;;22.30;15.65;;;5.20;99.90;;;;;;5113832;28;20507;-66
2022/11/30 01:06:08;;;;;;;19.27;13.80;;;5.20;99.90;;;;;;5114986;27;20042;-66
2022/11/30 01:08:34;;;;;;;23.23;15.25;;;5.20;99.90;;;;;;5115053;28;20078;-66
2022/11/30 01:11:22;;;;;;;23.33;14.82;;;5.20;99.90;;;;;;5112708;28;20080;-66
2022/11/30 01:13:48;;;;;;;20.20;14.77;;;5.30;99.90;;;;;;5113608;28;20039;-66
2022/11/30 01:16:22;;;;;;;24.63;17.27;;;5.30;99.90;;;;;;5112879;28;20450;-66
2022/11/30 01:18:49;;;;;;;25.85;17.98;;;5.30;99.90;;;;;;5114485;28;20039;-66
2022/11/30 01:21:17;;;;;;;20.02;14.10;;;5.30;99.90;;;;;;5112886;28;20092;-66
2022/11/30 01:23:43;;;;;;;20.33;14.82;;;5.30;99.90;;;;;;5113261;28;20492;-66
2022/11/30 01:26:10;;;;;;;23.85;15.75;;;5.30;99.90;;;;;;5094964;28;20073;-66
2022/11/30 01:28:36;;;;;;;24.02;16.42;;;5.40;99.90;;;;;;5114805;27;20078;-66
2022/11/30 01:31:07;;;;;;;20.73;14.10;;;5.40;99.90;;;;;;5114722;28;20059;-66
2022/11/30 01:33:33;;;;;;;22.33;15.10;;;5.50;99.90;;;;;;5114794;27;20040;-66
2022/11/30 01:36:10;;;;;;;24.98;15.85;;;5.50;99.90;;;;;;5113035;28;20123;-66
2022/11/30 01:38:39;;;;;;;24.98;15.95;;;5.50;99.90;;;;;;5112803;28;20063;-66
2022/11/30 01:41:06;;;;;;;28.95;17.92;;;5.50;99.90;;;;;;5112530;28;20140;-66
2022/11/30 01:43:56;;;;;;;23.48;16.25;;;5.60;99.90;;;;;;5114535;28;20035;-66
2022/11/30 01:46:33;;;;;;;19.17;14.07;;;5.60;99.90;;;;;;5113349;28;20216;-66
2022/11/30 01:49:08;;;;;;;25.42;17.60;;;5.60;99.90;;;;;;5112944;28;20035;-66
2022/11/30 01:51:50;;;;;;;28.10;17.33;;;5.60;99.90;;;;;;5112772;28;20046;-66
2022/11/30 01:54:21;;;;;;;28.98;18.17;;;5.60;99.90;;;;;;5113161;28;20039;-66
2022/11/30 01:56:52;;;;;;;27.20;17.20;;;5.70;99.90;;;;;;5112979;28;20109;-66
2022/11/30 01:59:20;;;;;;;25.50;16.88;;;5.60;99.90;;;;;;5111938;28;20104;-66
2022/11/30 02:01:46;;;;;;;23.30;16.17;;;5.70;99.90;;;;;;5112602;28;20086;-66
2022/11/30 02:04:22;;;;;;;20.75;15.80;;;5.60;99.90;;;;;;5113379;28;20081;-66
2022/11/30 02:06:48;;;;;;;27.25;17.85;;;5.70;99.90;;;;;;5112987;28;20115;-66
2022/11/30 02:09:15;;;;;;;24.23;17.13;;;5.70;99.90;;;;;;5111867;28;20500;-66
2022/11/30 02:11:41;;;;;;;25.50;15.70;;;5.70;99.90;;;;;;5113542;28;20040;-66
2022/11/30 02:14:30;;;;;;;24.95;17.23;;;5.60;99.90;;;;;;5112753;28;20064;-66
2022/11/30 02:17:21;;;;;;;21.85;15.45;;;5.60;99.90;;;;;;5112968;28;20480;-66
2022/11/30 02:20:02;;;;;;;22.88;14.75;;;5.60;99.90;;;;;;5112367;28;20122;-66
2022/11/30 02:22:56;;;;;;;25.42;17.15;;;5.50;99.90;;;;;;5112757;28;20434;-66
2022/11/30 02:25:34;;;;;;;20.77;15.93;;;5.50;99.90;;;;;;5111664;28;20056;-66
2022/11/30 02:28:41;;;;;;;20.88;13.80;;;5.50;99.90;;;;;;5111570;28;20047;-66
2022/11/30 02:31:11;;;;;;;20.85;14.32;;;5.40;99.90;;;;;;5111431;28;20031;-66
2022/11/30 02:33:39;;;;;;;27.83;17.77;;;5.30;99.90;;;;;;5111994;28;20046;-66
2022/11/30 02:36:07;;;;;;;21.20;13.60;;;5.20;99.90;;;;;;5110605;28;20537;-66
2022/11/30 02:38:33;;;;;;;29.63;17.02;;;5.10;99.90;;;;;;5111785;28;20122;-66
2022/11/30 02:40:59;;;;;;;25.50;16.45;;;5.10;99.90;;;;;;5113000;28;20113;-66
2022/11/30 02:43:27;;;;;;;27.30;17.15;;;5.10;99.90;;;;;;5110499;28;20096;-66
2022/11/30 02:46:20;;;;;;;23.20;16.92;;;5.00;99.90;;;;;;5112804;28;20380;-66
2022/11/30 02:48:59;;;;;;;24.17;15.50;;;4.90;99.90;;;;;;5112250;28;20612;-66
2022/11/30 02:51:26;;;;;;;21.02;13.77;;;4.90;99.90;;;;;;5111391;28;20552;-66
2022/11/30 02:53:53;;;;;;;27.20;17.27;;;4.80;99.90;;;;;;5112982;28;20510;-66
2022/11/30 02:56:20;;;;;;;23.58;14.88;;;4.70;99.90;;;;;;5111704;28;20071;-66
2022/11/30 02:58:47;;;;;;;28.38;17.90;;;4.70;99.90;;;;;;5111655;28;20492;-66
2022/11/30 03:01:12;;;;;;;25.95;15.95;;;4.60;99.90;;;;;;5111460;28;20046;-66
2022/11/30 03:03:38;;;;;;;33.72;16.50;;;4.60;99.90;;;;;;5112404;28;20043;-66
2022/11/30 03:06:04;;;;;;;34.78;17.15;;;4.50;99.90;;;;;;5111986;28;20390;-66
2022/11/30 03:08:30;;;;;;;99.40;26.88;;;4.50;99.90;;;;;;5113094;28;20035;-66
2022/11/30 03:10:55;;;;;;;27.70;16.25;;;4.50;99.90;;;;;;5112327;28;20085;-66
2022/11/30 03:13:21;;;;;;;23.27;14.98;;;4.40;99.90;;;;;;5112532;28;20131;-66
2022/11/30 03:15:46;;;;;;;25.45;14.80;;;4.40;99.90;;;;;;5111528;28;20069;-66
2022/11/30 03:18:13;;;;;;;64.22;21.92;;;4.30;99.90;;;;;;5111256;28;20395;-66
2022/11/30 03:20:42;;;;;;;36.40;18.05;;;4.30;99.90;;;;;;5111277;28;20046;-66
2022/11/30 03:23:08;;;;;;;33.00;15.13;;;4.30;99.90;;;;;;5110807;28;20496;-66
2022/11/30 03:25:33;;;;;;;71.03;18.13;;;4.20;99.90;;;;;;5111700;28;20083;-66
2022/11/30 03:28:00;;;;;;;60.95;16.90;;;4.20;99.90;;;;;;5115866;28;20115;-66
2022/11/30 03:30:26;;;;;;;97.53;17.38;;;4.10;99.90;;;;;;5114968;28;20047;-66
2022/11/30 03:32:52;;;;;;;98.60;18.77;;;4.10;99.90;;;;;;5114903;28;20100;-66
2022/11/30 03:35:18;;;;;;;86.10;18.42;;;4.00;99.90;;;;;;5114636;28;20052;-66
2022/11/30 03:37:43;;;;;;;29.00;11.35;;;4.00;99.90;;;;;;5114709;28;20502;-66
2022/11/30 03:40:10;;;;;;;63.50;17.33;;;4.10;99.90;;;;;;5114763;28;20035;-66
2022/11/30 03:42:36;;;;;;;56.75;14.75;;;4.00;99.90;;;;;;5116622;28;20036;-66
2022/11/30 03:45:02;;;;;;;87.72;20.77;;;4.00;99.90;;;;;;5115575;28;20445;-66
2022/11/30 03:47:28;;;;;;;102.53;23.80;;;4.00;99.90;;;;;;5114289;28;20047;-66
2022/11/30 03:49:53;;;;;;;77.18;17.67;;;3.90;99.90;;;;;;5114859;28;20046;-66
2022/11/30 03:52:19;;;;;;;75.57;16.15;;;3.90;99.90;;;;;;5115368;28;20031;-66
2022/11/30 03:54:45;;;;;;;81.88;16.33;;;3.90;99.90;;;;;;5115038;28;20038;-66
2022/11/30 03:57:11;;;;;;;48.28;13.57;;;3.90;99.90;;;;;;5115555;28;20098;-66
2022/11/30 03:59:36;;;;;;;32.45;11.13;;;3.80;99.90;;;;;;5115444;28;20075;-66
2022/11/30 04:02:02;;;;;;;25.75;9.55;;;3.80;99.90;;;;;;5116253;28;20047;-66
2022/11/30 04:04:28;;;;;;;18.00;10.43;;;3.80;99.90;;;;;;5115317;28;20105;-66
2022/11/30 04:06:53;;;;;;;27.77;10.45;;;3.70;99.90;;;;;;5114026;28;20043;-66
2022/11/30 04:09:19;;;;;;;19.50;9.73;;;3.80;99.90;;;;;;5114052;28;20036;-66
2022/11/30 04:11:45;;;;;;;11.93;8.05;;;3.80;99.90;;;;;;5115133;28;20035;-66
2022/11/30 04:14:11;;;;;;;19.40;11.40;;;3.80;99.90;;;;;;5114608;28;20039;-66
2022/11/30 04:16:36;;;;;;;9.52;6.78;;;3.80;99.90;;;;;;5116016;28;20047;-66
2022/11/30 04:19:02;;;;;;;9.95;7.68;;;3.80;99.90;;;;;;5115999;28;20040;-66
2022/11/30 04:21:27;;;;;;;12.38;7.72;;;3.80;99.90;;;;;;5113451;28;20066;-66
2022/11/30 04:23:53;;;;;;;12.07;8.05;;;3.70;99.90;;;;;;5114398;28;20078;-66
2022/11/30 04:26:19;;;;;;;17.65;9.30;;;3.60;99.90;;;;;;5113795;28;20043;-66
2022/11/30 04:28:44;;;;;;;12.25;8.73;;;3.50;99.90;;;;;;5113764;28;20040;-66
2022/11/30 04:31:10;;;;;;;17.83;8.63;;;3.50;99.90;;;;;;5113698;28;20601;-66
2022/11/30 04:33:36;;;;;;;10.63;7.50;;;3.50;99.90;;;;;;5114148;28;20058;-66
2022/11/30 04:36:04;;;;;;;10.63;6.88;;;3.50;99.90;;;;;;5113483;28;20492;-66
2022/11/30 04:38:31;;;;;;;12.30;8.10;;;3.50;99.90;;;;;;5113113;28;20040;-66
2022/11/30 04:40:57;;;;;;;12.05;9.07;;;3.60;99.90;;;;;;5115259;28;20043;-66
2022/11/30 04:43:23;;;;;;;12.27;7.95;;;3.60;99.90;;;;;;5114598;28;20039;-66
2022/11/30 04:45:50;;;;;;;10.30;7.30;;;3.60;99.90;;;;;;5113844;28;20484;-66
2022/11/30 04:48:17;;;;;;;14.85;10.23;;;3.60;99.90;;;;;;5112546;28;20081;-66
2022/11/30 04:50:42;;;;;;;13.25;9.65;;;3.60;99.90;;;;;;5114195;28;20455;-66
2022/11/30 04:53:09;;;;;;;16.33;10.48;;;3.70;99.90;;;;;;5113533;28;20040;-66
2022/11/30 04:55:36;;;;;;;18.38;12.93;;;3.70;99.90;;;;;;5114567;28;20039;-66
2022/11/30 04:58:02;;;;;;;19.38;12.15;;;3.70;99.90;;;;;;5096986;28;20043;-66
2022/11/30 05:00:28;;;;;;;17.85;13.00;;;3.80;99.90;;;;;;5096197;28;20483;-66
2022/11/30 05:02:56;;;;;;;15.73;11.70;;;3.90;99.90;;;;;;5112694;28;20499;-66
2022/11/30 05:05:22;;;;;;;14.73;10.18;;;3.90;99.90;;;;;;5113511;28;20071;-66
2022/11/30 05:07:56;;;;;;;19.08;12.68;;;4.00;99.90;;;;;;5113596;28;20503;-66
2022/11/30 05:10:21;;;;;;;12.98;8.40;;;4.10;99.90;;;;;;5112340;28;20039;-66
2022/11/30 05:12:49;;;;;;;14.90;8.85;;;4.10;99.90;;;;;;5115012;28;20438;-66
2022/11/30 05:15:15;;;;;;;19.75;11.80;;;4.10;99.90;;;;;;5113111;28;20496;-66
2022/11/30 05:17:40;;;;;;;17.48;10.93;;;4.20;99.90;;;;;;5114336;28;20058;-66
2022/11/30 05:20:06;;;;;;;12.93;8.85;;;4.20;99.90;;;;;;5113035;28;20043;-66
2022/11/30 05:22:34;;;;;;;12.98;8.93;;;4.20;99.90;;;;;;5114460;28;20454;-66
2022/11/30 05:24:59;;;;;;;15.88;9.85;;;4.20;99.90;;;;;;5112995;28;20036;-66
2022/11/30 05:27:25;;;;;;;13.88;10.00;;;4.30;99.90;;;;;;5113717;28;20461;-66
2022/11/30 05:29:51;;;;;;;16.00;10.45;;;4.30;99.90;;;;;;5114345;28;20048;-66
2022/11/30 05:32:17;;;;;;;11.57;8.85;;;4.30;99.90;;;;;;5113047;28;20031;-66
2022/11/30 05:34:42;;;;;;;16.25;10.98;;;4.30;99.90;;;;;;5112904;28;20035;-66
2022/11/30 05:37:08;;;;;;;12.68;9.35;;;4.40;99.90;;;;;;5113429;28;20043;-66
2022/11/30 05:39:34;;;;;;;15.65;9.68;;;4.40;99.90;;;;;;5113605;28;20036;-66
2022/11/30 05:41:59;;;;;;;15.90;9.82;;;4.40;99.90;;;;;;5113905;28;20065;-66
2022/11/30 05:44:25;;;;;;;14.82;9.95;;;4.40;99.90;;;;;;5112867;28;20097;-66
2022/11/30 05:46:50;;;;;;;13.05;9.25;;;4.50;99.90;;;;;;5112583;28;20043;-66
2022/11/30 05:49:16;;;;;;;15.00;10.35;;;4.50;99.90;;;;;;5112079;28;20040;-66
2022/11/30 05:51:42;;;;;;;13.05;9.55;;;4.50;99.90;;;;;;5112296;28;20046;-66
2022/11/30 05:54:07;;;;;;;14.70;8.50;;;4.50;99.90;;;;;;5112332;28;20491;-66
2022/11/30 05:56:33;;;;;;;14.23;9.65;;;4.50;99.90;;;;;;5112795;28;20092;-66
2022/11/30 05:58:59;;;;;;;16.27;10.27;;;4.50;99.90;;;;;;5113543;28;20101;-66
2022/11/30 06:01:27;;;;;;;13.63;9.80;;;4.50;99.90;;;;;;5113490;28;20404;-66
2022/11/30 06:03:54;;;;;;;13.20;8.93;;;4.50;99.90;;;;;;5112822;28;20055;-66
2022/11/30 06:06:20;;;;;;;15.43;9.38;;;4.60;99.90;;;;;;5094058;28;20075;-66
2022/11/30 06:08:47;;;;;;;13.02;8.90;;;4.60;99.90;;;;;;5112464;28;20035;-66
2022/11/30 06:11:13;;;;;;;19.23;12.90;;;4.60;99.90;;;;;;5112047;28;20035;-66
2022/11/30 06:13:39;;;;;;;13.10;9.80;;;4.60;99.90;;;;;;5113173;28;20038;-66
2022/11/30 06:16:06;;;;;;;18.40;11.88;;;4.70;99.90;;;;;;5112866;28;20041;-66
2022/11/30 06:18:32;;;;;;;14.00;9.20;;;4.70;99.90;;;;;;5112467;28;20077;-66
2022/11/30 06:21:06;;;;;;;14.15;9.65;;;4.70;99.90;;;;;;5112874;28;20061;-66
2022/11/30 06:23:32;;;;;;;19.08;12.60;;;4.70;99.90;;;;;;5112119;28;20035;-66
2022/11/30 06:26:01;;;;;;;18.15;12.57;;;4.70;99.90;;;;;;5112132;28;20483;-66
2022/11/30 06:28:27;;;;;;;18.25;11.93;;;4.80;99.90;;;;;;5111313;28;20112;-66
2022/11/30 06:30:57;;;;;;;19.58;13.73;;;4.80;99.90;;;;;;5113399;28;20028;-66
2022/11/30 06:33:23;;;;;;;22.15;12.07;;;4.80;99.90;;;;;;5113523;28;20395;-66
2022/11/30 06:35:48;;;;;;;18.38;11.65;;;4.90;99.90;;;;;;5111448;28;20047;-66
2022/11/30 06:38:14;;;;;;;17.67;12.05;;;4.90;99.90;;;;;;5111384;28;20395;-66
2022/11/30 06:40:40;;;;;;;20.92;13.90;;;4.90;99.90;;;;;;5112903;28;20031;-66
2022/11/30 06:43:05;;;;;;;19.10;12.98;;;5.00;99.90;;;;;;5111454;28;20573;-66
2022/11/30 06:45:31;;;;;;;22.58;15.15;;;4.90;99.90;;;;;;5113234;28;20040;-66
2022/11/30 06:47:57;;;;;;;21.50;14.85;;;5.00;99.90;;;;;;5112664;28;20348;-66
2022/11/30 06:50:23;;;;;;;23.73;15.35;;;5.00;99.90;;;;;;5111202;28;20502;-66
2022/11/30 06:52:49;;;;;;;27.70;16.88;;;5.00;99.90;;;;;;5094633;28;20042;-66
2022/11/30 06:55:15;;;;;;;22.20;14.75;;;5.10;99.90;;;;;;5110940;28;20040;-66
2022/11/30 06:57:41;;;;;;;24.90;15.80;;;5.10;99.90;;;;;;5094648;28;20040;-66
2022/11/30 07:00:08;;;;;;;24.52;15.73;;;5.20;99.90;;;;;;5094584;28;20043;-66
2022/11/30 07:02:34;;;;;;;25.58;16.10;;;5.10;99.90;;;;;;5110571;28;20043;-66
2022/11/30 07:05:00;;;;;;;23.92;14.98;;;5.20;99.90;;;;;;5113252;28;20086;-66
2022/11/30 07:07:29;;;;;;;22.63;14.75;;;5.20;99.90;;;;;;5093957;28;20075;-66
2022/11/30 07:09:55;;;;;;;23.05;14.18;;;5.20;99.90;;;;;;5112535;28;20040;-66
2022/11/30 07:12:20;;;;;;;22.52;15.63;;;5.20;99.90;;;;;;5111398;28;20080;-66
2022/11/30 07:14:46;;;;;;;23.33;15.65;;;5.30;99.90;;;;;;5111808;28;20511;-66
2022/11/30 07:17:12;;;;;;;29.17;18.30;;;5.30;99.90;;;;;;5111892;28;20487;-66
2022/11/30 07:19:37;;;;;;;24.48;18.00;;;5.30;99.90;;;;;;5111430;28;20047;-66
2022/11/30 07:22:03;;;;;;;24.83;17.23;;;5.30;99.90;;;;;;5112885;28;20111;-66
2022/11/30 07:27:13;;;;;;;26.67;17.70;;;5.30;99.90;;;;;;5111956;28;20059;-66
2022/11/30 07:29:39;;;;;;;31.92;21.25;;;5.30;99.90;;;;;;5112973;28;20039;-66
2022/11/30 07:32:04;;;;;;;34.67;22.08;;;5.40;99.90;;;;;;5093541;28;20114;-66
2022/11/30 07:34:30;;;;;;;30.85;20.98;;;5.30;99.90;;;;;;5111353;28;20044;-66
2022/11/30 07:36:56;;;;;;;26.48;19.00;;;5.40;99.90;;;;;;5112304;28;20392;-66
2022/11/30 07:39:23;;;;;;;33.83;21.35;;;5.40;99.90;;;;;;5111027;28;20127;-66
2022/11/30 07:41:48;;;;;;;32.58;21.88;;;5.40;99.90;;;;;;5094190;28;20539;-66
2022/11/30 07:44:14;;;;;;;35.72;21.35;;;5.40;99.90;;;;;;5110664;28;20181;-66
2022/11/30 07:46:40;;;;;;;42.60;26.13;;;5.40;99.90;;;;;;5111563;28;20507;-66
2022/11/30 07:49:07;;;;;;;42.03;25.42;;;5.40;99.90;;;;;;5110960;28;20419;-66
2022/11/30 07:51:33;;;;;;;49.33;26.67;;;5.40;99.90;;;;;;5112289;28;20043;-66
2022/11/30 07:53:59;;;;;;;45.08;26.02;;;5.40;99.90;;;;;;5111608;28;20058;-66
2022/11/30 07:56:26;;;;;;;44.22;26.60;;;5.30;99.90;;;;;;5111184;28;20484;-66
2022/11/30 07:58:57;;;;;;;45.10;26.02;;;5.30;99.90;;;;;;5110753;28;20048;-66
2022/11/30 08:01:25;;;;;;;46.83;26.83;;;5.30;99.90;;;;;;5110801;28;20079;-66
2022/11/30 08:03:52;;;;;;;57.85;35.25;;;5.30;99.90;;;;;;5111230;28;20040;-66
2022/11/30 08:06:29;;;;;;;65.68;39.55;;;5.20;99.90;;;;;;5111638;28;20039;-66
2022/11/30 08:08:57;;;;;;;66.57;43.28;;;5.20;99.90;;;;;;5111565;28;20510;-66
2022/11/30 08:11:25;;;;;;;93.13;53.95;;;5.20;99.90;;;;;;5112101;28;20028;-66
2022/11/30 08:13:52;;;;;;;57.45;34.10;;;5.20;99.90;;;;;;5111882;28;20039;-66
2022/11/30 08:16:20;;;;;;;56.40;33.97;;;5.10;99.90;;;;;;5114647;28;20452;-66
2022/11/30 08:18:46;;;;;;;60.42;35.65;;;5.20;99.90;;;;;;5098070;28;20122;-66
2022/11/30 08:21:13;;;;;;;51.78;27.17;;;5.20;99.90;;;;;;5113660;28;20126;-66
2022/11/30 08:23:44;;;;;;;48.35;30.08;;;5.20;99.90;;;;;;5114428;28;20040;-65
2022/11/30 08:26:13;;;;;;;54.70;29.33;;;5.20;99.90;;;;;;5114226;27;20050;-66
2022/11/30 08:28:39;;;;;;;56.63;29.88;;;5.20;99.90;;;;;;5114513;27;20526;-66
2022/11/30 08:31:08;;;;;;;49.40;29.00;;;5.30;99.90;;;;;;5114998;28;20031;-66
2022/11/30 08:33:36;;;;;;;62.22;32.08;;;5.30;99.90;;;;;;5113805;27;20047;-66
2022/11/30 08:36:05;;;;;;;48.85;29.17;;;5.40;99.90;;;;;;5115974;27;20035;-65
2022/11/30 08:38:31;;;;;;;45.53;28.65;;;5.50;99.90;;;;;;5113769;28;20039;-66
2022/11/30 08:40:57;;;;;;;42.83;27.02;;;5.50;99.90;;;;;;5112528;28;20150;-65
2022/11/30 08:43:22;;;;;;;42.10;26.30;;;5.50;99.90;;;;;;5113337;28;20035;-66
2022/11/30 08:45:48;;;;;;;43.20;26.13;;;5.60;99.90;;;;;;5095866;28;20051;-65
2022/11/30 08:48:14;;;;;;;40.53;26.48;;;5.60;99.90;;;;;;5109976;28;20039;-65
2022/11/30 08:50:39;;;;;;;39.95;24.25;;;5.60;99.90;;;;;;5112826;27;20043;-65
2022/11/30 08:53:05;;;;;;;37.20;24.10;;;5.60;99.90;;;;;;5108792;28;20071;-65
2022/11/30 08:55:30;;;;;;;46.60;26.70;;;5.70;99.90;;;;;;5111497;28;20401;-65
2022/11/30 08:57:57;;;;;;;47.00;29.33;;;5.70;99.90;;;;;;5112535;28;20478;-65
2022/11/30 09:00:22;;;;;;;54.33;28.98;;;5.70;99.90;;;;;;5110472;28;20039;-65
2022/11/30 09:02:48;;;;;;;47.90;29.05;;;5.80;99.90;;;;;;5093552;28;20117;-65
2022/11/30 09:05:14;;;;;;;52.15;29.20;;;5.80;99.90;;;;;;5111828;28;20126;-65
2022/11/30 09:07:39;;;;;;;52.08;28.55;;;5.80;99.90;;;;;;5093465;28;20093;-65
2022/11/30 09:10:06;;;;;;;43.33;26.45;;;5.80;99.90;;;;;;5108736;28;20047;-65
2022/11/30 09:12:34;;;;;;;43.03;27.17;;;5.90;99.90;;;;;;5094596;28;20117;-65
2022/11/30 09:15:00;;;;;;;43.78;27.75;;;5.90;99.90;;;;;;5111793;28;20050;-66
2022/11/30 09:17:26;;;;;;;55.40;31.90;;;5.90;99.90;;;;;;5111288;28;20396;-66
2022/11/30 09:19:53;;;;;;;49.67;27.90;;;6.00;99.90;;;;;;5113020;28;20552;-66
2022/11/30 09:22:19;;;;;;;49.72;27.88;;;6.00;99.90;;;;;;5111446;28;20036;-66
2022/11/30 09:24:44;;;;;;;44.15;25.55;;;6.10;99.90;;;;;;5112324;28;20054;-66
2022/11/30 09:27:10;;;;;;;48.38;27.15;;;6.10;99.90;;;;;;5109996;28;20446;-66
2022/11/30 09:29:36;;;;;;;46.35;26.17;;;6.10;99.90;;;;;;5110870;28;20721;-66
2022/11/30 09:32:02;;;;;;;46.00;26.73;;;6.10;99.90;;;;;;5110377;28;20529;-66
2022/11/30 09:34:27;;;;;;;52.15;28.85;;;6.10;99.90;;;;;;5110619;28;20035;-66
2022/11/30 09:36:53;;;;;;;47.63;28.63;;;6.20;99.90;;;;;;5110044;28;20035;-66
2022/11/30 09:39:19;;;;;;;48.20;26.63;;;6.20;99.90;;;;;;5110148;28;20357;-66
2022/11/30 09:41:47;;;;;;;49.95;27.80;;;6.20;99.90;;;;;;5110782;28;20546;-66
2022/11/30 09:44:42;;;;;;;47.72;28.15;;;6.20;99.90;;;;;;5110066;28;20092;-66
2022/11/30 09:47:14;;;;;;;58.55;29.10;;;6.20;99.90;;;;;;5106910;28;20040;-66
2022/11/30 09:49:43;;;;;;;44.40;24.58;;;6.20;99.90;;;;;;5112318;28;20040;-66
2022/11/30 09:52:15;;;;;;;51.75;27.88;;;6.20;99.90;;;;;;5111155;28;20042;-66
2022/11/30 09:54:43;;;;;;;47.92;27.25;;;6.20;99.90;;;;;;5109228;28;20040;-66
2022/11/30 09:57:29;;;;;;;49.55;25.25;;;6.20;99.90;;;;;;5109339;28;20040;-66
2022/11/30 09:59:57;;;;;;;44.60;26.75;;;6.20;99.90;;;;;;5111868;28;20073;-66
2022/11/30 10:02:44;;;;;;;46.80;27.20;;;6.30;99.90;;;;;;5109762;28;20039;-66
2022/11/30 10:05:48;;;;;;;40.38;26.05;;;6.30;99.90;;;;;;5108957;28;20134;-64
2022/11/30 10:08:20;;;;;;;49.28;25.90;;;6.40;99.90;;;;;;5099004;28;20468;-63
2022/11/30 10:10:51;;;;;;;46.90;26.85;;;6.40;99.90;;;;;;5113247;28;20043;-64
2022/11/30 10:13:26;;;;;;;46.05;28.27;;;6.50;99.90;;;;;;5110915;28;20122;-65
2022/11/30 10:16:08;;;;;;;;;;;6.50;99.90;;;;;;5112388;28;20036;-62
2022/11/30 10:18:51;;;;;;;47.38;27.25;;;6.50;99.90;;;;;;5111947;28;19915;-66
2022/11/30 10:21:34;;;;;;;48.92;27.70;;;6.50;99.90;;;;;;5108170;28;20047;-61
2022/11/30 10:24:25;;;;;;;48.92;27.13;;;6.50;99.90;;;;;;5095306;28;20071;-67
2022/11/30 10:26:56;;;;;;;50.55;27.42;;;6.50;99.90;;;;;;5096447;28;20047;-66
2022/11/30 10:29:38;;;;;;;45.90;28.42;;;6.60;99.90;;;;;;5113160;28;20079;-66
2022/11/30 10:32:19;;;;;;;41.83;24.25;;;6.60;99.90;;;;;;5112296;28;20024;-65
2022/11/30 10:34:53;;;;;;;48.85;27.00;;;6.60;99.90;;;;;;5110960;28;20667;-66
2022/11/30 10:37:26;;;;;;;47.22;28.33;;;6.60;99.90;;;;;;5110410;28;20077;-65
2022/11/30 10:39:58;;;;;;;47.67;28.75;;;6.60;99.90;;;;;;5110539;28;20093;-65
2022/11/30 10:42:33;;;;;;;49.65;27.33;;;6.70;99.90;;;;;;5111311;28;20690;-66
2022/11/30 10:45:05;;;;;;;42.72;25.50;;;6.70;99.90;;;;;;5111326;28;20459;-66
2022/11/30 10:47:35;;;;;;;51.13;28.00;;;6.70;99.90;;;;;;5111132;28;20040;-66
2022/11/30 10:50:03;;;;;;;47.03;26.25;;;6.70;99.90;;;;;;5111483;28;20036;-66
2022/11/30 10:52:47;;;;;;;48.63;27.73;;;6.80;99.90;;;;;;5111489;28;20050;-66
2022/11/30 10:55:34;;;;;;;43.97;27.70;;;6.80;99.90;;;;;;5110552;28;20031;-67
2022/11/30 10:58:26;;;;;;;42.67;25.55;;;6.90;99.90;;;;;;5109953;28;20365;-66
2022/11/30 11:00:57;;;;;;;49.30;28.13;;;6.90;99.90;;;;;;5110679;28;20040;-66
2022/11/30 11:03:25;;;;;;;46.38;27.15;;;6.90;99.90;;;;;;5112005;28;20555;-67
2022/11/30 11:06:21;;;;;;;47.15;25.92;;;6.90;99.90;;;;;;5111292;28;20043;-66
2022/11/30 11:08:48;;;;;;;42.47;25.63;;;6.90;99.90;;;;;;5111122;28;20036;-66
2022/11/30 11:11:36;;;;;;;43.38;24.15;;;6.90;99.90;;;;;;5110680;28;20532;-66
2022/11/30 11:14:28;;;;;;;42.55;25.55;;;6.90;99.90;;;;;;5112650;28;20040;-66
2022/11/30 11:16:56;;;;;;;41.25;25.52;;;7.00;99.90;;;;;;5099527;28;20051;-66
2022/11/30 11:19:29;;;;;;;44.13;23.33;;;7.00;99.90;;;;;;5110289;28;20127;-66
2022/11/30 11:21:55;;;;;;;37.38;23.13;;;7.00;99.90;;;;;;5111035;28;20136;-66
2022/11/30 11:24:26;;;;;;;37.17;23.58;;;7.00;99.90;;;;;;5110235;28;20478;-66
2022/11/30 11:26:54;;;;;;;41.05;24.30;;;7.00;99.90;;;;;;5110342;28;20059;-66
2022/11/30 11:29:32;;;;;;;45.05;24.50;;;7.00;99.90;;;;;;5110234;28;20118;-66
2022/11/30 11:32:07;;;;;;;41.00;23.73;;;7.00;99.90;;;;;;5111449;28;20044;-66
2022/11/30 11:34:34;;;;;;;;;;;7.00;99.90;;;;;;5111576;28;20040;-66
2022/11/30 11:37:23;;;;;;;42.85;24.73;;;7.00;99.90;;;;;;5093575;28;20467;-66
2022/11/30 11:40:05;;;;;;;43.22;24.95;;;7.00;99.90;;;;;;5111231;28;20498;-66
2022/11/30 11:42:34;;;;;;;38.92;24.63;;;7.00;99.90;;;;;;5111203;28;20136;-66
2022/11/30 11:45:02;;;;;;;45.55;26.95;;;7.00;99.90;;;;;;5093422;28;20075;-66
2022/11/30 11:47:36;;;;;;;43.08;25.98;;;7.00;99.90;;;;;;5111515;28;20052;-66
2022/11/30 11:50:53;;;;;;;45.13;27.02;;;7.00;99.90;;;;;;5115830;28;20048;-66
2022/11/30 11:53:40;;;;;;;48.50;26.15;;;7.00;99.90;;;;;;5113868;28;20381;-66
2022/11/30 11:56:09;;;;;;;47.88;25.13;;;7.00;99.90;;;;;;5113899;28;20357;-65
2022/11/30 11:58:41;;;;;;;46.53;27.00;;;7.00;99.90;;;;;;5113626;28;20047;-70
2022/11/30 12:01:15;;;;;;;43.95;27.73;;;7.00;99.90;;;;;;5106873;28;20043;-67
2022/11/30 12:03:56;;;;;;;48.08;26.20;;;7.00;99.90;;;;;;5113632;28;20046;-67
2022/11/30 12:06:23;;;;;;;45.55;27.23;;;7.00;99.90;;;;;;5109850;28;20040;-67
2022/11/30 12:09:03;;;;;;;46.67;27.15;;;7.00;99.90;;;;;;5112710;28;20047;-67
2022/11/30 12:11:45;;;;;;;94.78;52.60;;;7.10;99.90;;;;;;5101512;28;20047;-67
2022/11/30 12:14:13;;;;;;;77.85;43.00;;;7.00;99.90;;;;;;5108260;28;20554;-67
2022/11/30 12:17:16;;;;;;;79.78;46.00;;;7.10;99.90;;;;;;5094734;28;20169;-67
2022/11/30 12:20:07;;;;;;;52.78;33.35;;;7.10;99.90;;;;;;5099055;28;20397;-67
2022/11/30 12:22:35;;;;;;;46.00;27.95;;;7.10;99.90;;;;;;5091563;28;20558;-67
2022/11/30 12:25:19;;;;;;;48.42;28.95;;;7.10;99.90;;;;;;5113206;28;20495;-67
2022/11/30 12:28:16;;;;;;;54.78;30.02;;;7.10;99.90;;;;;;5115942;28;20048;-67
2022/11/30 12:30:59;;;;;;;46.30;26.25;;;7.10;99.90;;;;;;5112876;28;20043;-67
2022/11/30 12:33:44;;;;;;;50.65;30.35;;;7.10;99.90;;;;;;5112923;28;20039;-67
2022/11/30 12:36:26;;;;;;;49.63;29.70;;;7.10;99.90;;;;;;5113771;28;20043;-67
2022/11/30 12:39:03;;;;;;;54.88;30.30;;;7.10;99.90;;;;;;5113740;28;20124;-67
2022/11/30 12:41:51;;;;;;;54.20;29.90;;;7.10;99.90;;;;;;5113243;28;20047;-67
2022/11/30 12:44:19;;;;;;;50.67;27.48;;;7.10;99.90;;;;;;5102493;28;20040;-66
2022/11/30 12:47:30;;;;;;;56.50;30.17;;;7.20;99.90;;;;;;5113137;28;20040;-66
2022/11/30 12:50:09;;;;;;;49.35;29.90;;;7.10;99.90;;;;;;5094222;28;20127;-67
2022/11/30 12:52:52;;;;;;;46.10;28.70;;;7.10;99.90;;;;;;5114113;28;20040;-67
2022/11/30 12:55:24;;;;;;;57.13;33.83;;;7.10;99.90;;;;;;5112668;28;20122;-67